CheckWX is a tool to help pilots better visualize weather data.  It is not intended as a substitute for an official pre-flight weather briefing.

03:35:49 UTC

KRNH METAR
New Richmond Regional Airport
New Richmond, Wisconsin, USA
Current

21 mins ago

KRNH 180315Z AUTO 16008G14KT 10SM CLR 22/19 A2996 RMK AO2 T02240185
Observed
Sep-18 @ 03:15 UTC
Wind
  • 160° at 8 KTS
  • Gusting to 14 KTS
Visibility
10 SM
Flight Rules
VFR
Cloud Levels
  • Clear skies
Temperature
22°C / 72°F
Dewpoint
19°C / 66°F
Humidity
83%
Altimeter
29.96" Hg
Pressure
1014.52 hPa
Previous

41 mins ago

KRNH 180255Z AUTO 16011G15KT 10SM CLR 23/19 A2995 RMK AO2 T02270187
Observed
Sep-18 @ 02:55 UTC
Wind
  • 160° at 11 KTS
  • Gusting to 15 KTS
Visibility
10 SM
Flight Rules
VFR
Cloud Levels
  • Clear skies
Temperature
23°C / 73°F
Dewpoint
19°C / 66°F
Humidity
78%
Altimeter
29.95" Hg
Pressure
1014.22 hPa
Previous

1 hour ago

KRNH 180235Z AUTO 16011G16KT 10SM CLR 23/19 A2995 RMK AO2 T02300190
Observed
Sep-18 @ 02:35 UTC
Wind
  • 160° at 11 KTS
  • Gusting to 16 KTS
Visibility
10 SM
Flight Rules
VFR
Cloud Levels
  • Clear skies
Temperature
23°C / 73°F
Dewpoint
19°C / 66°F
Humidity
78%
Altimeter
29.95" Hg
Pressure
1014.22 hPa